sensor_id;sensor_type;location;lat;lon;timestamp;P1;durP1;ratioP1;P2;durP2;ratioP2
52272;SDS011;38227;50.942;4.016;2022-10-04T14:37:10;7.37;;;3.80;;
52272;SDS011;38227;50.942;4.016;2022-10-04T15:19:21;7.68;;;3.40;;
52272;SDS011;38227;50.942;4.016;2022-10-04T15:22:39;8.07;;;3.58;;
52272;SDS011;38227;50.942;4.016;2022-10-04T15:28:50;7.47;;;3.65;;
52272;SDS011;38227;50.942;4.016;2022-10-04T15:31:49;6.30;;;3.40;;
52272;SDS011;38227;50.942;4.016;2022-10-04T15:38:02;7.03;;;3.40;;
52272;SDS011;38227;50.942;4.016;2022-10-04T15:55:02;8.15;;;4.20;;
52272;SDS011;38227;50.942;4.016;2022-10-04T16:04:36;8.85;;;4.12;;
52272;SDS011;38227;50.942;4.016;2022-10-04T16:07:35;9.52;;;4.65;;
52272;SDS011;38227;50.942;4.016;2022-10-04T16:10:54;9.00;;;4.37;;
52272;SDS011;38227;50.942;4.016;2022-10-04T16:27:19;7.53;;;4.37;;
52272;SDS011;38227;50.942;4.016;2022-10-04T16:33:24;10.88;;;4.35;;
52272;SDS011;38227;50.942;4.016;2022-10-04T16:36:18;7.97;;;4.40;;
52272;SDS011;38227;50.942;4.016;2022-10-04T16:38:51;8.82;;;4.70;;
52272;SDS011;38227;50.942;4.016;2022-10-04T16:41:52;8.38;;;4.93;;
52272;SDS011;38227;50.942;4.016;2022-10-04T16:44:38;9.50;;;4.87;;
52272;SDS011;38227;50.942;4.016;2022-10-04T16:47:49;9.45;;;5.68;;
52272;SDS011;38227;50.942;4.016;2022-10-04T16:57:25;11.12;;;5.80;;
52272;SDS011;38227;50.942;4.016;2022-10-04T17:03:25;11.00;;;6.00;;
52272;SDS011;38227;50.942;4.016;2022-10-04T17:06:12;9.20;;;5.85;;
52272;SDS011;38227;50.942;4.016;2022-10-04T17:08:45;10.63;;;5.82;;
52272;SDS011;38227;50.942;4.016;2022-10-04T17:30:27;10.32;;;6.15;;
52272;SDS011;38227;50.942;4.016;2022-10-04T17:33:20;10.90;;;6.35;;
52272;SDS011;38227;50.942;4.016;2022-10-04T17:36:11;10.52;;;6.37;;
52272;SDS011;38227;50.942;4.016;2022-10-04T17:39:00;12.52;;;6.20;;
52272;SDS011;38227;50.942;4.016;2022-10-04T17:54:48;11.35;;;6.47;;
52272;SDS011;38227;50.942;4.016;2022-10-04T17:57:53;11.63;;;6.85;;
52272;SDS011;38227;50.942;4.016;2022-10-04T18:00:52;11.90;;;6.70;;
52272;SDS011;38227;50.942;4.016;2022-10-04T18:03:36;12.80;;;7.07;;
52272;SDS011;38227;50.942;4.016;2022-10-04T18:06:26;10.43;;;6.60;;
52272;SDS011;38227;50.942;4.016;2022-10-04T18:09:18;12.45;;;7.05;;
52272;SDS011;38227;50.942;4.016;2022-10-04T18:12:00;13.73;;;7.40;;
52272;SDS011;38227;50.942;4.016;2022-10-04T18:18:14;16.58;;;8.57;;
52272;SDS011;38227;50.942;4.016;2022-10-04T18:25:01;14.52;;;8.98;;
52272;SDS011;38227;50.942;4.016;2022-10-04T18:27:00;15.23;;;8.88;;
52272;SDS011;38227;50.942;4.016;2022-10-04T18:29:55;16.77;;;10.02;;
52272;SDS011;38227;50.942;4.016;2022-10-04T18:32:49;16.42;;;9.40;;
52272;SDS011;38227;50.942;4.016;2022-10-04T18:35:25;14.38;;;9.07;;
52272;SDS011;38227;50.942;4.016;2022-10-04T18:44:16;15.90;;;9.07;;
52272;SDS011;38227;50.942;4.016;2022-10-04T18:46:57;19.08;;;9.43;;
52272;SDS011;38227;50.942;4.016;2022-10-04T18:49:28;16.60;;;9.85;;
52272;SDS011;38227;50.942;4.016;2022-10-04T18:55:32;16.98;;;9.73;;
52272;SDS011;38227;50.942;4.016;2022-10-04T19:02:54;16.10;;;9.05;;
52272;SDS011;38227;50.942;4.016;2022-10-04T19:08:38;13.85;;;9.13;;
52272;SDS011;38227;50.942;4.016;2022-10-04T19:14:37;16.50;;;9.00;;
52272;SDS011;38227;50.942;4.016;2022-10-04T19:26:45;17.27;;;8.57;;
52272;SDS011;38227;50.942;4.016;2022-10-04T19:29:37;15.82;;;8.90;;
52272;SDS011;38227;50.942;4.016;2022-10-04T19:35:53;16.77;;;9.48;;
52272;SDS011;38227;50.942;4.016;2022-10-04T19:45:07;17.62;;;9.77;;
52272;SDS011;38227;50.942;4.016;2022-10-04T19:47:49;18.05;;;9.10;;
52272;SDS011;38227;50.942;4.016;2022-10-04T19:50:26;16.37;;;9.57;;
52272;SDS011;38227;50.942;4.016;2022-10-04T19:53:15;13.23;;;9.17;;
52272;SDS011;38227;50.942;4.016;2022-10-04T20:01:50;16.08;;;9.82;;
52272;SDS011;38227;50.942;4.016;2022-10-04T20:04:19;16.17;;;9.63;;
52272;SDS011;38227;50.942;4.016;2022-10-04T20:07:06;19.83;;;10.25;;
52272;SDS011;38227;50.942;4.016;2022-10-04T20:09:51;17.17;;;9.73;;
52272;SDS011;38227;50.942;4.016;2022-10-04T20:12:57;18.50;;;10.15;;
52272;SDS011;38227;50.942;4.016;2022-10-04T20:15:55;16.95;;;10.27;;
52272;SDS011;38227;50.942;4.016;2022-10-04T20:21:24;15.75;;;9.73;;
52272;SDS011;38227;50.942;4.016;2022-10-04T20:23:55;16.12;;;9.82;;
52272;SDS011;38227;50.942;4.016;2022-10-04T20:26:39;15.85;;;10.00;;
52272;SDS011;38227;50.942;4.016;2022-10-04T20:35:56;16.02;;;9.52;;
52272;SDS011;38227;50.942;4.016;2022-10-04T20:38:41;17.05;;;9.32;;
52272;SDS011;38227;50.942;4.016;2022-10-04T20:44:52;14.02;;;9.43;;
52272;SDS011;38227;50.942;4.016;2022-10-04T20:56:13;13.93;;;9.05;;
52272;SDS011;38227;50.942;4.016;2022-10-04T20:58:56;15.32;;;9.10;;
52272;SDS011;38227;50.942;4.016;2022-10-04T21:01:29;16.42;;;9.10;;
52272;SDS011;38227;50.942;4.016;2022-10-04T21:04:25;16.25;;;9.85;;
52272;SDS011;38227;50.942;4.016;2022-10-04T21:07:22;18.83;;;9.73;;
52272;SDS011;38227;50.942;4.016;2022-10-04T21:10:05;21.23;;;9.55;;
52272;SDS011;38227;50.942;4.016;2022-10-04T21:12:45;13.73;;;9.40;;
52272;SDS011;38227;50.942;4.016;2022-10-04T21:18:22;17.23;;;9.23;;
52272;SDS011;38227;50.942;4.016;2022-10-04T21:20:50;17.85;;;9.93;;
52272;SDS011;38227;50.942;4.016;2022-10-04T21:23:24;15.95;;;9.85;;
52272;SDS011;38227;50.942;4.016;2022-10-04T21:28:53;18.45;;;9.70;;
52272;SDS011;38227;50.942;4.016;2022-10-04T21:31:24;14.50;;;10.13;;
52272;SDS011;38227;50.942;4.016;2022-10-04T21:33:57;18.10;;;9.90;;
52272;SDS011;38227;50.942;4.016;2022-10-04T21:36:29;15.52;;;9.43;;
52272;SDS011;38227;50.942;4.016;2022-10-04T21:39:01;15.40;;;9.10;;
52272;SDS011;38227;50.942;4.016;2022-10-04T21:41:28;14.82;;;9.27;;
52272;SDS011;38227;50.942;4.016;2022-10-04T21:43:56;15.18;;;9.85;;
52272;SDS011;38227;50.942;4.016;2022-10-04T21:46:25;15.63;;;9.30;;
52272;SDS011;38227;50.942;4.016;2022-10-04T21:48:56;14.70;;;8.30;;
52272;SDS011;38227;50.942;4.016;2022-10-04T21:51:25;15.40;;;8.30;;
52272;SDS011;38227;50.942;4.016;2022-10-04T21:53:55;13.00;;;8.90;;
52272;SDS011;38227;50.942;4.016;2022-10-04T21:56:25;12.88;;;8.10;;
52272;SDS011;38227;50.942;4.016;2022-10-04T21:59:01;16.33;;;8.30;;
52272;SDS011;38227;50.942;4.016;2022-10-04T22:01:29;14.77;;;8.32;;
52272;SDS011;38227;50.942;4.016;2022-10-04T22:03:58;16.67;;;8.13;;
52272;SDS011;38227;50.942;4.016;2022-10-04T22:06:29;14.70;;;8.52;;
52272;SDS011;38227;50.942;4.016;2022-10-04T22:08:59;11.82;;;8.40;;
52272;SDS011;38227;50.942;4.016;2022-10-04T22:11:31;12.75;;;8.30;;
52272;SDS011;38227;50.942;4.016;2022-10-04T22:14:04;12.50;;;8.10;;
52272;SDS011;38227;50.942;4.016;2022-10-04T22:16:34;11.77;;;8.30;;
52272;SDS011;38227;50.942;4.016;2022-10-04T22:19:04;14.35;;;8.43;;
52272;SDS011;38227;50.942;4.016;2022-10-04T22:21:35;11.63;;;7.95;;
52272;SDS011;38227;50.942;4.016;2022-10-04T22:24:08;16.30;;;8.20;;
52272;SDS011;38227;50.942;4.016;2022-10-04T22:26:44;14.25;;;8.07;;
52272;SDS011;38227;50.942;4.016;2022-10-04T22:29:17;12.25;;;8.35;;
52272;SDS011;38227;50.942;4.016;2022-10-04T22:31:45;12.70;;;8.32;;
52272;SDS011;38227;50.942;4.016;2022-10-04T22:34:20;15.18;;;8.68;;
52272;SDS011;38227;50.942;4.016;2022-10-04T22:36:49;12.82;;;8.30;;
52272;SDS011;38227;50.942;4.016;2022-10-04T22:39:18;15.45;;;8.25;;
52272;SDS011;38227;50.942;4.016;2022-10-04T22:41:52;13.85;;;8.30;;
52272;SDS011;38227;50.942;4.016;2022-10-04T22:44:30;13.27;;;8.68;;
52272;SDS011;38227;50.942;4.016;2022-10-04T22:47:10;15.05;;;8.35;;
52272;SDS011;38227;50.942;4.016;2022-10-04T22:49:43;15.98;;;8.30;;
52272;SDS011;38227;50.942;4.016;2022-10-04T22:52:16;12.93;;;8.20;;
52272;SDS011;38227;50.942;4.016;2022-10-04T22:54:45;13.98;;;8.10;;
52272;SDS011;38227;50.942;4.016;2022-10-04T22:57:16;13.73;;;8.48;;
52272;SDS011;38227;50.942;4.016;2022-10-04T22:59:48;14.82;;;9.32;;
52272;SDS011;38227;50.942;4.016;2022-10-04T23:02:27;14.60;;;8.77;;
52272;SDS011;38227;50.942;4.016;2022-10-04T23:04:58;13.68;;;8.10;;
52272;SDS011;38227;50.942;4.016;2022-10-04T23:07:44;12.95;;;7.87;;
52272;SDS011;38227;50.942;4.016;2022-10-04T23:10:17;13.23;;;8.43;;
52272;SDS011;38227;50.942;4.016;2022-10-04T23:12:53;11.57;;;7.75;;
52272;SDS011;38227;50.942;4.016;2022-10-04T23:15:23;13.60;;;8.65;;
52272;SDS011;38227;50.942;4.016;2022-10-04T23:17:56;14.45;;;9.07;;
52272;SDS011;38227;50.942;4.016;2022-10-04T23:20:29;14.73;;;8.52;;
52272;SDS011;38227;50.942;4.016;2022-10-04T23:23:00;14.00;;;8.80;;
52272;SDS011;38227;50.942;4.016;2022-10-04T23:25:32;11.98;;;8.10;;
52272;SDS011;38227;50.942;4.016;2022-10-04T23:28:10;13.38;;;8.65;;
52272;SDS011;38227;50.942;4.016;2022-10-04T23:30:43;14.18;;;8.43;;
52272;SDS011;38227;50.942;4.016;2022-10-04T23:33:18;11.98;;;8.63;;
52272;SDS011;38227;50.942;4.016;2022-10-04T23:35:48;16.33;;;9.05;;
52272;SDS011;38227;50.942;4.016;2022-10-04T23:38:19;14.05;;;8.52;;
52272;SDS011;38227;50.942;4.016;2022-10-04T23:40:48;13.05;;;8.57;;
52272;SDS011;38227;50.942;4.016;2022-10-04T23:43:19;14.23;;;8.25;;
52272;SDS011;38227;50.942;4.016;2022-10-04T23:45:50;13.70;;;8.57;;
52272;SDS011;38227;50.942;4.016;2022-10-04T23:48:24;12.37;;;8.48;;
52272;SDS011;38227;50.942;4.016;2022-10-04T23:50:54;12.48;;;8.65;;
52272;SDS011;38227;50.942;4.016;2022-10-04T23:53:26;17.00;;;8.60;;
52272;SDS011;38227;50.942;4.016;2022-10-04T23:55:57;15.02;;;8.93;;
52272;SDS011;38227;50.942;4.016;2022-10-04T23:58:31;16.15;;;8.75;;
